Time;durP1;ratioP1;P1;durP2;ratioP2;P2;SDS_P1;SDS_P2;PMS_P1;PMS_P2;Temp;Humidity;BMP_temperature;BMP_pressure;BME280_temperature;BME280_humidity;BME280_pressure;Samples;Min_cycle;Max_cycle;Signal;HPM_P1;HPM_P2
2022/06/28 00:01:58;;;;;;;0.00;0.00;;;20.70;99.90;;;;;;5085865;28;20190;-71
2022/06/28 00:04:25;;;;;;;0.00;0.00;;;20.70;99.90;;;;;;5088381;28;20244;-70
2022/06/28 00:06:53;;;;;;;0.00;0.00;;;20.70;99.90;;;;;;5085118;28;20213;-71
2022/06/28 00:09:21;;;;;;;0.00;0.00;;;20.70;99.90;;;;;;5085521;28;20233;-71
2022/06/28 00:11:49;;;;;;;0.00;0.00;;;20.60;99.90;;;;;;5085897;28;20725;-71
2022/06/28 00:17:00;;;;;;;0.00;0.00;;;20.60;99.90;;;;;;5075157;28;20210;-71
2022/06/28 00:19:28;;;;;;;0.00;0.00;;;20.60;99.90;;;;;;5083931;28;20206;-70
2022/06/28 00:21:55;;;;;;;0.00;0.00;;;20.50;99.90;;;;;;5076771;28;20206;-70
2022/06/28 00:24:24;;;;;;;0.00;0.00;;;20.50;99.90;;;;;;5100846;28;20218;-71
2022/06/28 00:26:51;;;;;;;0.00;0.00;;;20.40;99.90;;;;;;5086569;28;20221;-71
2022/06/28 00:29:18;;;;;;;0.00;0.00;;;20.40;99.90;;;;;;5078141;28;20201;-71
2022/06/28 00:31:45;;;;;;;0.00;0.00;;;20.40;99.90;;;;;;5082963;28;20836;-71
2022/06/28 00:34:12;;;;;;;0.00;0.00;;;20.40;99.90;;;;;;5084444;28;20326;-71
2022/06/28 00:36:39;;;;;;;0.00;0.00;;;20.40;99.90;;;;;;5084782;28;20284;-71
2022/06/28 00:39:08;;;;;;;0.00;0.00;;;20.40;99.90;;;;;;5079834;28;20202;-71
2022/06/28 00:41:37;;;;;;;0.00;0.00;;;20.40;99.90;;;;;;5080241;28;20251;-70
2022/06/28 00:44:05;;;;;;;0.00;0.00;;;20.40;99.90;;;;;;5085557;28;20858;-70
2022/06/28 00:46:34;;;;;;;0.00;0.00;;;20.40;99.90;;;;;;5079350;28;21674;-71
2022/06/28 00:49:01;;;;;;;0.00;0.00;;;20.40;99.90;;;;;;5084825;28;20202;-69
2022/06/28 00:51:27;;;;;;;0.00;0.00;;;20.40;99.90;;;;;;5084365;28;20251;-69
2022/06/28 00:53:55;;;;;;;0.00;0.00;;;20.40;99.90;;;;;;5084456;28;20301;-70
2022/06/28 00:56:23;;;;;;;0.00;0.00;;;20.30;99.90;;;;;;5082287;28;20395;-71
2022/06/28 00:58:52;;;;;;;0.00;0.00;;;20.30;99.90;;;;;;5084738;28;20206;-71
2022/06/28 01:01:20;;;;;;;0.00;0.00;;;20.30;99.90;;;;;;5083733;28;20217;-71
2022/06/28 01:03:47;;;;;;;0.00;0.00;;;20.30;99.90;;;;;;5083858;28;20275;-71
2022/06/28 01:06:14;;;;;;;0.00;0.00;;;20.20;99.90;;;;;;5083821;28;20221;-70
2022/06/28 01:08:41;;;;;;;0.00;0.00;;;20.20;99.90;;;;;;5084800;28;20262;-71
2022/06/28 01:11:19;;;;;;;0.00;0.00;;;20.20;99.90;;;;;;5083432;28;20262;-70
2022/06/28 01:13:52;;;;;;;0.00;0.00;;;20.20;99.90;;;;;;5078884;28;20234;-71
2022/06/28 01:16:22;;;;;;;0.00;0.00;;;20.20;99.90;;;;;;5083054;28;20200;-70
2022/06/28 01:18:52;;;;;;;0.00;0.00;;;20.20;99.90;;;;;;5084532;28;20283;-70
2022/06/28 01:21:35;;;;;;;0.00;0.00;;;20.20;99.90;;;;;;5083387;28;20206;-70
2022/06/28 01:24:05;;;;;;;0.00;0.00;;;20.20;99.90;;;;;;5085526;28;20233;-70
2022/06/28 01:26:42;;;;;;;0.00;0.00;;;20.10;99.90;;;;;;5084273;28;20336;-70
2022/06/28 01:29:10;;;;;;;0.00;0.00;;;20.10;99.90;;;;;;5077665;28;20250;-71
2022/06/28 01:31:46;;;;;;;0.00;0.00;;;20.10;99.90;;;;;;5076025;28;20282;-70
2022/06/28 01:34:15;;;;;;;0.00;0.00;;;20.10;99.90;;;;;;5083495;28;20232;-70
2022/06/28 01:36:44;;;;;;;0.00;0.00;;;20.00;99.90;;;;;;5081911;28;20209;-70
2022/06/28 01:39:14;;;;;;;0.00;0.00;;;20.00;99.90;;;;;;5084125;28;20213;-70
2022/06/28 01:41:43;;;;;;;0.00;0.00;;;20.00;99.90;;;;;;5083057;28;20249;-70
2022/06/28 01:44:23;;;;;;;0.00;0.00;;;20.00;99.90;;;;;;5082981;28;20455;-70
2022/06/28 01:47:00;;;;;;;0.00;0.00;;;19.90;99.90;;;;;;5083563;28;20224;-71
2022/06/28 01:49:48;;;;;;;0.00;0.00;;;19.90;99.90;;;;;;5081281;28;20788;-70
2022/06/28 01:52:18;;;;;;;0.00;0.00;;;19.90;99.90;;;;;;5083152;28;20226;-70
2022/06/28 01:54:46;;;;;;;0.00;0.00;;;19.90;99.90;;;;;;5097473;28;20205;-70
2022/06/28 01:57:15;;;;;;;0.00;0.00;;;19.80;99.90;;;;;;5121471;27;20202;-71
2022/06/28 01:59:49;;;;;;;0.00;0.00;;;19.90;99.90;;;;;;5086549;28;20860;-71
2022/06/28 02:02:31;;;;;;;0.00;0.00;;;19.80;99.90;;;;;;5088795;28;20228;-71
2022/06/28 02:05:17;;;;;;;0.00;0.00;;;19.80;99.90;;;;;;5087856;28;20231;-71
2022/06/28 02:07:47;;;;;;;0.00;0.00;;;19.80;99.90;;;;;;5087871;28;20857;-69
2022/06/28 02:10:17;;;;;;;0.00;0.00;;;19.80;99.90;;;;;;5102305;28;20203;-71
2022/06/28 02:12:44;;;;;;;0.00;0.00;;;19.70;99.90;;;;;;5086779;28;20611;-70
2022/06/28 02:15:12;;;;;;;0.00;0.00;;;19.70;99.90;;;;;;5087772;28;20226;-71
2022/06/28 02:17:39;;;;;;;0.00;0.00;;;19.60;99.90;;;;;;5087792;28;20716;-71
2022/06/28 02:20:08;;;;;;;0.00;0.00;;;19.60;99.90;;;;;;5088076;28;20281;-69
2022/06/28 02:22:35;;;;;;;0.00;0.00;;;19.60;99.90;;;;;;5085603;28;20217;-71
2022/06/28 02:25:02;;;;;;;0.00;0.00;;;19.60;99.90;;;;;;5087844;28;20194;-71
2022/06/28 02:27:30;;;;;;;0.00;0.00;;;19.60;99.90;;;;;;5087975;28;20336;-71
2022/06/28 02:29:57;;;;;;;0.00;0.00;;;19.50;99.90;;;;;;5089168;28;20592;-71
2022/06/28 02:32:24;;;;;;;0.00;0.00;;;19.50;99.90;;;;;;5087750;28;20267;-71
2022/06/28 02:40:25;;;;;;;0.00;0.00;;;19.50;99.90;;;;;;5088028;28;20268;-71
2022/06/28 02:42:56;;;;;;;0.00;0.00;;;19.40;99.90;;;;;;5088821;28;20213;-71
2022/06/28 02:45:24;;;;;;;0.00;0.00;;;19.50;99.90;;;;;;5090695;28;20232;-71
2022/06/28 02:47:51;;;;;;;0.00;0.00;;;19.40;99.90;;;;;;5087063;28;20285;-71
2022/06/28 02:50:20;;;;;;;0.00;0.00;;;19.40;99.90;;;;;;5089487;28;20303;-71
2022/06/28 02:52:49;;;;;;;0.00;0.00;;;19.30;99.90;;;;;;5088765;28;20226;-71
2022/06/28 02:55:16;;;;;;;0.00;0.00;;;19.30;99.90;;;;;;5086620;28;20223;-71
2022/06/28 02:57:44;;;;;;;0.00;0.00;;;19.30;99.90;;;;;;5086880;28;20292;-72
2022/06/28 03:00:16;;;;;;;0.00;0.00;;;19.20;99.90;;;;;;5087285;28;20202;-71
2022/06/28 03:02:45;;;;;;;0.00;0.00;;;19.20;99.90;;;;;;5086253;28;20232;-72
2022/06/28 03:05:16;;;;;;;0.00;0.00;;;19.10;99.90;;;;;;5086074;28;20443;-71
2022/06/28 03:07:44;;;;;;;0.00;0.00;;;19.20;99.90;;;;;;5086011;28;20233;-72
2022/06/28 03:10:12;;;;;;;0.00;0.00;;;19.10;99.90;;;;;;5085786;28;20194;-72
2022/06/28 03:12:39;;;;;;;0.00;0.00;;;19.10;99.90;;;;;;5079700;28;20266;-71
2022/06/28 03:15:07;;;;;;;0.00;0.00;;;19.00;99.90;;;;;;5079847;28;20578;-71
2022/06/28 03:17:36;;;;;;;0.00;0.00;;;19.00;99.90;;;;;;5080988;28;20242;-71
2022/06/28 03:20:03;;;;;;;0.00;0.00;;;18.90;99.90;;;;;;5081637;28;20264;-71
2022/06/28 03:22:30;;;;;;;0.00;0.00;;;18.90;99.90;;;;;;5085805;28;20217;-71
2022/06/28 03:24:57;;;;;;;0.00;0.00;;;18.90;99.90;;;;;;5086693;28;20202;-72
2022/06/28 03:27:24;;;;;;;0.00;0.00;;;18.90;99.90;;;;;;5086674;28;20306;-71
2022/06/28 03:29:52;;;;;;;0.00;0.00;;;18.90;99.90;;;;;;5086375;28;20198;-71
2022/06/28 03:32:25;;;;;;;0.00;0.00;;;18.90;99.90;;;;;;5082660;28;20220;-71
2022/06/28 03:34:54;;;;;;;0.00;0.00;;;19.00;99.90;;;;;;5086588;28;20197;-70
2022/06/28 03:37:23;;;;;;;0.00;0.00;;;19.00;99.90;;;;;;5084811;28;20247;-70
2022/06/28 03:39:55;;;;;;;0.00;0.00;;;19.00;99.90;;;;;;5086356;28;20296;-70
2022/06/28 03:42:23;;;;;;;0.00;0.00;;;19.00;99.90;;;;;;5084359;28;20288;-71
2022/06/28 03:44:52;;;;;;;0.00;0.00;;;19.00;99.90;;;;;;5077542;28;20194;-72
2022/06/28 03:47:19;;;;;;;0.00;0.00;;;19.00;99.90;;;;;;5084122;28;20218;-72
2022/06/28 03:50:05;;;;;;;0.00;0.00;;;19.00;99.90;;;;;;5085633;28;20193;-70
2022/06/28 03:53:08;;;;;;;0.00;0.00;;;18.90;99.90;;;;;;5080950;28;20334;-72
2022/06/28 03:55:58;;;;;;;0.00;0.00;;;18.90;99.90;;;;;;5081549;28;20689;-70
2022/06/28 03:58:25;;;;;;;0.00;0.00;;;18.90;99.90;;;;;;5083851;28;20221;-70
2022/06/28 04:00:52;;;;;;;0.00;0.00;;;18.80;99.90;;;;;;5085797;28;20237;-72
2022/06/28 04:03:20;;;;;;;0.00;0.00;;;18.80;99.90;;;;;;5084694;28;20218;-71
2022/06/28 04:05:48;;;;;;;0.00;0.00;;;18.80;99.90;;;;;;5082316;28;20318;-73
2022/06/28 04:08:15;;;;;;;0.00;0.00;;;18.80;99.90;;;;;;5085479;28;20194;-71
2022/06/28 04:10:46;;;;;;;0.00;0.00;;;18.80;99.90;;;;;;5085500;28;20198;-71
2022/06/28 04:13:18;;;;;;;0.00;0.00;;;18.70;99.90;;;;;;5084324;28;20217;-71
2022/06/28 04:15:45;;;;;;;0.00;0.00;;;18.80;99.90;;;;;;5086086;28;20201;-70
2022/06/28 04:18:16;;;;;;;0.00;0.00;;;18.80;99.90;;;;;;5083038;28;20243;-71
2022/06/28 04:21:09;;;;;;;0.00;0.00;;;18.80;99.90;;;;;;5086147;28;20284;-71
2022/06/28 04:23:38;;;;;;;0.00;0.00;;;18.80;99.90;;;;;;5083977;28;20210;-71
2022/06/28 04:26:06;;;;;;;0.00;0.00;;;18.90;99.90;;;;;;5085566;28;20209;-71
2022/06/28 04:28:38;;;;;;;0.00;0.00;;;19.00;99.90;;;;;;5085531;28;20194;-70
2022/06/28 04:31:09;;;;;;;0.00;0.00;;;19.00;99.90;;;;;;5083136;28;20321;-71
2022/06/28 04:33:37;;;;;;;0.00;0.00;;;18.90;99.90;;;;;;5087365;28;20225;-72
2022/06/28 04:36:05;;;;;;;0.00;0.00;;;18.90;99.90;;;;;;5087206;28;20204;-70
2022/06/28 04:38:35;;;;;;;0.00;0.00;;;19.00;99.90;;;;;;5085600;28;20289;-71
2022/06/28 04:41:08;;;;;;;0.00;0.00;;;19.00;99.90;;;;;;5084873;28;20638;-72
2022/06/28 04:44:05;;;;;;;0.00;0.00;;;19.10;99.90;;;;;;5088143;28;20381;-70
2022/06/28 04:46:35;;;;;;;0.00;0.00;;;19.10;99.90;;;;;;5086886;28;20210;-71
2022/06/28 04:49:06;;;;;;;0.00;0.00;;;19.10;99.90;;;;;;5092320;28;20610;-71
2022/06/28 04:51:42;;;;;;;0.00;0.00;;;19.10;99.90;;;;;;5093974;28;20229;-71
2022/06/28 04:54:13;;;;;;;0.00;0.00;;;19.10;99.90;;;;;;5094571;28;20312;-71
2022/06/28 04:57:07;;;;;;;0.00;0.00;;;19.30;99.90;;;;;;5061069;28;20236;-71
2022/06/28 04:59:34;;;;;;;0.00;0.00;;;19.30;99.90;;;;;;5093653;28;20194;-70
2022/06/28 05:02:05;;;;;;;0.00;0.00;;;19.40;99.90;;;;;;5084308;28;20552;-71
2022/06/28 05:04:32;;;;;;;0.00;0.00;;;19.40;99.90;;;;;;5086104;28;20288;-71
2022/06/28 05:07:04;;;;;;;0.00;0.00;;;19.50;99.90;;;;;;5086768;28;20649;-70
2022/06/28 05:09:33;;;;;;;0.00;0.00;;;19.50;99.90;;;;;;5086447;28;20864;-71
2022/06/28 05:11:59;;;;;;;0.00;0.00;;;19.50;99.90;;;;;;5091191;28;20216;-71
2022/06/28 05:14:31;;;;;;;0.00;0.00;;;19.60;99.90;;;;;;5092857;28;20210;-72
2022/06/28 05:16:59;;;;;;;0.00;0.00;;;19.70;99.90;;;;;;5094878;28;20561;-70
2022/06/28 05:19:27;;;;;;;0.00;0.00;;;19.80;99.90;;;;;;5089711;28;20198;-71
2022/06/28 05:21:54;;;;;;;0.00;0.00;;;19.80;99.90;;;;;;5091033;28;20219;-71
2022/06/28 05:24:21;;;;;;;0.00;0.00;;;19.70;99.90;;;;;;5084946;28;20218;-71
2022/06/28 05:27:00;;;;;;;0.00;0.00;;;19.70;99.90;;;;;;5084309;28;20221;-70
2022/06/28 05:29:31;;;;;;;0.00;0.00;;;19.60;99.90;;;;;;5084855;28;20248;-71
2022/06/28 05:31:58;;;;;;;0.00;0.00;;;19.50;99.90;;;;;;5084091;28;20202;-72
2022/06/28 05:34:25;;;;;;;0.00;0.00;;;19.50;99.90;;;;;;5078728;28;20222;-71
2022/06/28 05:36:52;;;;;;;0.00;0.00;;;19.40;99.90;;;;;;5085614;28;20197;-71
2022/06/28 05:39:19;;;;;;;0.00;0.00;;;19.40;99.90;;;;;;5083716;28;20202;-71
2022/06/28 05:41:46;;;;;;;0.00;0.00;;;19.30;99.90;;;;;;5084159;28;20201;-72
2022/06/28 05:44:16;;;;;;;0.00;0.00;;;19.40;99.90;;;;;;5084015;28;20214;-70
2022/06/28 05:46:44;;;;;;;0.00;0.00;;;19.50;99.90;;;;;;5078109;28;20228;-71
2022/06/28 05:49:11;;;;;;;0.00;0.00;;;19.60;99.90;;;;;;5082079;28;20210;-72
2022/06/28 05:51:38;;;;;;;0.00;0.00;;;19.70;99.90;;;;;;5076764;28;20194;-71
2022/06/28 05:54:07;;;;;;;0.00;0.00;;;19.80;99.90;;;;;;5078985;28;20217;-71
2022/06/28 05:56:35;;;;;;;0.00;0.00;;;19.70;99.90;;;;;;5083531;28;20239;-70
2022/06/28 05:59:04;;;;;;;0.00;0.00;;;19.80;99.90;;;;;;5084267;28;20201;-71
2022/06/28 06:01:32;;;;;;;0.00;0.00;;;19.80;99.90;;;;;;5083049;28;20198;-70
2022/06/28 06:04:00;;;;;;;0.00;0.00;;;19.80;99.90;;;;;;5084420;28;20225;-70
2022/06/28 06:06:28;;;;;;;0.00;0.00;;;19.90;99.90;;;;;;5084574;28;20224;-72
2022/06/28 06:08:55;;;;;;;0.00;0.00;;;19.90;99.90;;;;;;5083889;28;20213;-71
2022/06/28 06:11:23;;;;;;;0.00;0.00;;;19.90;99.90;;;;;;5082636;28;20753;-71
2022/06/28 06:13:50;;;;;;;0.00;0.00;;;19.90;99.90;;;;;;5078603;28;20287;-72
2022/06/28 06:16:17;;;;;;;0.00;0.00;;;20.00;99.90;;;;;;5077946;28;20209;-71
2022/06/28 06:18:45;;;;;;;0.00;0.00;;;20.00;99.90;;;;;;5084689;28;20217;-70
2022/06/28 06:21:12;;;;;;;0.00;0.00;;;20.00;99.90;;;;;;5084774;28;20290;-70
2022/06/28 06:23:40;;;;;;;0.00;0.00;;;20.10;99.90;;;;;;5075648;28;20305;-73
2022/06/28 06:26:21;;;;;;;0.00;0.00;;;20.20;99.90;;;;;;5082946;28;20213;-73
2022/06/28 06:28:48;;;;;;;0.00;0.00;;;20.20;99.90;;;;;;5080998;28;20221;-71
2022/06/28 06:31:15;;;;;;;0.00;0.00;;;20.30;99.90;;;;;;5091851;28;20250;-72
2022/06/28 06:34:02;;;;;;;0.00;0.00;;;20.40;99.90;;;;;;5085036;28;20471;-70
2022/06/28 06:36:43;;;;;;;0.00;0.00;;;20.60;99.90;;;;;;5078538;28;20217;-71
2022/06/28 06:39:12;;;;;;;0.00;0.00;;;20.80;99.90;;;;;;5087491;28;20222;-71
2022/06/28 06:41:40;;;;;;;0.00;0.00;;;21.00;99.90;;;;;;5085880;28;20236;-71
2022/06/28 06:44:06;;;;;;;0.00;0.00;;;21.10;99.90;;;;;;5088673;28;20214;-71
2022/06/28 06:46:34;;;;;;;0.00;0.00;;;21.20;99.90;;;;;;5090380;28;20210;-71
2022/06/28 06:49:02;;;;;;;0.00;0.00;;;21.40;99.90;;;;;;5091228;28;20194;-71
2022/06/28 06:51:31;;;;;;;0.00;0.00;;;21.50;99.90;;;;;;5088741;28;20256;-71
2022/06/28 06:53:58;;;;;;;0.00;0.00;;;21.70;99.90;;;;;;5119992;27;20224;-71
2022/06/28 06:56:25;;;;;;;0.00;0.00;;;22.00;99.90;;;;;;5086608;28;20251;-70
2022/06/28 06:58:52;;;;;;;0.00;0.00;;;22.10;99.90;;;;;;5089009;28;20301;-71
2022/06/28 07:01:20;;;;;;;0.00;0.00;;;22.20;99.90;;;;;;5129127;27;20216;-71
2022/06/28 07:03:48;;;;;;;0.00;0.00;;;22.10;99.90;;;;;;5088453;28;20304;-71
2022/06/28 07:06:16;;;;;;;0.00;0.00;;;22.10;99.90;;;;;;5094036;28;20276;-71
2022/06/28 07:08:43;;;;;;;0.00;0.00;;;22.20;99.90;;;;;;5086915;28;20226;-71
2022/06/28 07:11:13;;;;;;;0.00;0.00;;;22.30;99.90;;;;;;5085870;28;20201;-70
2022/06/28 07:13:40;;;;;;;0.00;0.00;;;22.50;99.90;;;;;;5083106;28;20264;-71
2022/06/28 07:16:07;;;;;;;0.00;0.00;;;22.50;99.90;;;;;;5083396;28;20199;-71
2022/06/28 07:18:34;;;;;;;0.00;0.00;;;22.40;99.90;;;;;;5078864;28;20513;-71
2022/06/28 07:21:01;;;;;;;0.00;0.00;;;22.60;99.90;;;;;;5084970;28;20297;-71
2022/06/28 07:23:30;;;;;;;0.00;0.00;;;22.70;99.90;;;;;;5086035;28;20228;-71
2022/06/28 07:25:57;;;;;;;0.00;0.00;;;22.80;99.90;;;;;;5086308;28;20190;-71
2022/06/28 07:28:24;;;;;;;0.00;0.00;;;22.90;99.90;;;;;;5087669;28;20210;-71
2022/06/28 07:30:51;;;;;;;0.00;0.00;;;23.30;99.90;;;;;;5087537;28;20229;-72
2022/06/28 07:33:18;;;;;;;0.00;0.00;;;23.40;99.90;;;;;;5085989;28;20271;-71
2022/06/28 07:35:45;;;;;;;0.00;0.00;;;23.40;99.90;;;;;;5086019;28;20205;-71
2022/06/28 07:38:14;;;;;;;0.00;0.00;;;23.50;99.90;;;;;;5086192;28;20251;-71
2022/06/28 07:41:02;;;;;;;0.00;0.00;;;23.80;99.90;;;;;;5087783;28;20208;-71
2022/06/28 07:44:01;;;;;;;0.00;0.00;;;24.00;99.90;;;;;;5060612;28;20256;-70
2022/06/28 07:46:31;;;;;;;0.00;0.00;;;23.70;99.90;;;;;;5095861;28;20235;-70
2022/06/28 07:48:57;;;;;;;0.00;0.00;;;23.70;99.90;;;;;;5092575;28;20213;-71
2022/06/28 07:54:11;;;;;;;0.00;0.00;;;23.90;99.90;;;;;;5088022;28;20221;-71
2022/06/28 07:56:53;;;;;;;0.00;0.00;;;24.20;99.90;;;;;;5085755;28;20383;-70
2022/06/28 07:59:21;;;;;;;0.00;0.00;;;24.30;99.90;;;;;;5085842;28;20682;-71
2022/06/28 08:01:49;;;;;;;0.00;0.00;;;24.40;99.90;;;;;;5093270;28;20202;-71
2022/06/28 08:04:21;;;;;;;0.00;0.00;;;24.50;99.90;;;;;;5094056;28;20222;-71
2022/06/28 08:06:50;;;;;;;0.00;0.00;;;24.50;99.90;;;;;;5094441;28;20204;-70
2022/06/28 08:09:19;;;;;;;0.00;0.00;;;24.40;99.90;;;;;;5094785;28;20244;-70
2022/06/28 08:11:48;;;;;;;0.00;0.00;;;24.20;99.90;;;;;;5089175;28;20213;-70
2022/06/28 08:14:17;;;;;;;0.00;0.00;;;24.00;99.90;;;;;;5085710;28;20218;-70
2022/06/28 08:16:44;;;;;;;0.00;0.00;;;24.00;99.90;;;;;;5081827;28;20213;-70
2022/06/28 08:19:15;;;;;;;0.00;0.00;;;23.90;99.90;;;;;;5086537;28;20186;-70
2022/06/28 08:21:44;;;;;;;0.00;0.00;;;24.10;99.90;;;;;;5088933;28;20607;-71
2022/06/28 08:24:11;;;;;;;0.00;0.00;;;24.40;99.90;;;;;;5084715;28;20221;-71
2022/06/28 08:26:42;;;;;;;0.00;0.00;;;24.60;99.90;;;;;;5073333;28;20222;-71
2022/06/28 08:29:09;;;;;;;0.00;0.00;;;24.90;99.90;;;;;;5079422;28;20225;-70
2022/06/28 08:31:38;;;;;;;0.00;0.00;;;25.10;99.90;;;;;;5085140;28;20301;-70
2022/06/28 08:34:05;;;;;;;0.00;0.00;;;25.00;99.90;;;;;;5085083;28;20325;-69
2022/06/28 08:36:32;;;;;;;0.00;0.00;;;25.10;99.90;;;;;;5085127;28;20202;-71
2022/06/28 08:39:00;;;;;;;0.00;0.00;;;25.20;99.90;;;;;;5084341;28;20194;-71
2022/06/28 08:41:29;;;;;;;0.00;0.00;;;25.30;99.90;;;;;;5088790;28;20666;-70
2022/06/28 08:43:56;;;;;;;0.00;0.00;;;25.50;99.90;;;;;;5087990;28;20218;-71
2022/06/28 08:46:24;;;;;;;0.00;0.00;;;25.80;99.90;;;;;;5092343;28;20201;-70
2022/06/28 08:48:59;;;;;;;0.00;0.00;;;25.90;99.90;;;;;;5094490;28;20225;-71
2022/06/28 08:51:30;;;;;;;0.00;0.00;;;26.10;99.90;;;;;;5086114;28;20232;-71
2022/06/28 08:54:01;;;;;;;0.00;0.00;;;26.00;99.90;;;;;;5082616;28;20221;-70
2022/06/28 08:56:28;;;;;;;0.00;0.00;;;26.00;99.90;;;;;;5117589;27;20232;-71
2022/06/28 08:58:58;;;;;;;0.00;0.00;;;26.00;99.90;;;;;;5087689;28;20197;-70
2022/06/28 09:01:26;;;;;;;0.00;0.00;;;26.10;99.90;;;;;;5086791;28;20217;-70
2022/06/28 09:03:55;;;;;;;0.00;0.00;;;26.10;99.90;;;;;;5085272;28;20317;-70
2022/06/28 09:06:23;;;;;;;0.00;0.00;;;26.10;99.90;;;;;;5090598;28;20209;-70
2022/06/28 09:08:50;;;;;;;0.00;0.00;;;26.10;99.90;;;;;;5092182;28;20251;-69
2022/06/28 09:11:17;;;;;;;0.00;0.00;;;26.20;99.90;;;;;;5090210;28;20676;-71
2022/06/28 09:13:44;;;;;;;0.00;0.00;;;26.30;99.90;;;;;;5091239;28;20221;-70
2022/06/28 09:16:13;;;;;;;0.00;0.00;;;26.40;99.90;;;;;;5086504;28;20229;-71
2022/06/28 09:18:48;;;;;;;0.00;0.00;;;26.40;99.90;;;;;;5080519;28;20225;-71
2022/06/28 09:21:18;;;;;;;0.00;0.00;;;26.60;99.90;;;;;;5085368;28;20216;-71
2022/06/28 09:23:48;;;;;;;0.00;0.00;;;26.70;99.90;;;;;;5118150;27;20303;-70
2022/06/28 09:26:17;;;;;;;0.00;0.00;;;26.80;99.90;;;;;;5084409;28;20227;-71
2022/06/28 09:28:45;;;;;;;0.00;0.00;;;26.90;99.90;;;;;;5089433;28;20278;-71
2022/06/28 09:31:18;;;;;;;0.00;0.00;;;27.00;99.90;;;;;;5085576;28;20247;-71
2022/06/28 09:33:47;;;;;;;0.00;0.00;;;26.80;99.90;;;;;;5092929;28;20286;-70
2022/06/28 09:36:17;;;;;;;0.00;0.00;;;26.40;99.90;;;;;;5093034;28;20259;-71
2022/06/28 09:38:45;;;;;;;0.00;0.00;;;25.90;99.90;;;;;;5092925;28;20197;-71
2022/06/28 09:41:24;;;;;;;0.00;0.00;;;25.70;99.90;;;;;;5096356;28;20234;-72
2022/06/28 09:43:56;;;;;;;0.00;0.00;;;25.60;99.90;;;;;;5084573;28;20310;-71
2022/06/28 09:46:26;;;;;;;0.00;0.00;;;25.70;99.90;;;;;;5090275;28;20204;-71
2022/06/28 09:48:57;;;;;;;0.00;0.00;;;25.50;99.90;;;;;;5121555;27;20225;-70
2022/06/28 09:51:27;;;;;;;0.00;0.00;;;25.70;99.90;;;;;;5096267;28;20213;-70
2022/06/28 09:53:56;;;;;;;0.00;0.00;;;25.80;99.90;;;;;;5090525;28;20596;-71
2022/06/28 09:56:25;;;;;;;0.00;0.00;;;26.00;99.90;;;;;;5119374;27;20193;-71
2022/06/28 09:58:52;;;;;;;0.00;0.00;;;26.10;99.90;;;;;;5085842;28;20209;-70
2022/06/28 10:01:20;;;;;;;0.00;0.00;;;25.90;99.90;;;;;;5084153;28;20193;-71
2022/06/28 10:03:49;;;;;;;0.00;0.00;;;25.70;99.90;;;;;;5088782;28;20279;-72
2022/06/28 10:06:18;;;;;;;0.00;0.00;;;25.70;99.90;;;;;;5088056;28;20203;-71
2022/06/28 10:08:46;;;;;;;0.00;0.00;;;25.50;99.90;;;;;;5083956;28;20263;-72
2022/06/28 10:11:14;;;;;;;0.00;0.00;;;25.60;99.90;;;;;;5083368;28;20296;-71
2022/06/28 10:16:36;;;;;;;0.00;0.00;;;25.70;99.90;;;;;;5096526;28;20198;-72
2022/06/28 10:19:05;;;;;;;0.00;0.00;;;25.60;99.90;;;;;;5088630;28;20225;-72
2022/06/28 10:22:07;;;;;;;0.00;0.00;;;25.70;99.90;;;;;;5084914;28;20202;-70
2022/06/28 10:24:53;;;;;;;0.00;0.00;;;25.90;99.90;;;;;;5088584;28;20282;-70
2022/06/28 10:27:21;;;;;;;0.00;0.00;;;26.10;99.90;;;;;;5094042;28;20266;-71
2022/06/28 10:30:21;;;;;;;0.00;0.00;;;26.20;99.90;;;;;;5092765;28;20271;-70
2022/06/28 10:32:50;;;;;;;0.00;0.00;;;26.30;99.90;;;;;;5094255;28;20222;-70
2022/06/28 10:36:05;;;;;;;0.00;0.00;;;26.40;99.90;;;;;;5089243;28;20366;-71
2022/06/28 10:38:32;;;;;;;0.00;0.00;;;26.50;99.90;;;;;;5087553;28;20209;-70
2022/06/28 10:41:14;;;;;;;0.00;0.00;;;26.60;99.90;;;;;;5129328;27;20206;-70
2022/06/28 10:43:50;;;;;;;0.00;0.00;;;26.70;99.90;;;;;;5084176;28;20262;-69
2022/06/28 10:46:17;;;;;;;0.00;0.00;;;26.80;99.90;;;;;;5095457;28;20224;-72
2022/06/28 10:49:07;;;;;;;0.00;0.00;;;26.90;99.90;;;;;;5088681;28;20226;-70
2022/06/28 10:51:35;;;;;;;0.00;0.00;;;27.10;99.90;;;;;;5097795;28;20241;-70
2022/06/28 10:54:06;;;;;;;0.00;0.00;;;27.20;99.90;;;;;;5096983;28;20229;-70
2022/06/28 10:56:39;;;;;;;0.00;0.00;;;27.20;99.90;;;;;;5087496;28;20209;-71
2022/06/28 10:59:07;;;;;;;0.00;0.00;;;27.30;99.90;;;;;;5086798;28;20194;-71
2022/06/28 11:01:54;;;;;;;0.00;0.00;;;27.20;99.90;;;;;;5091172;28;20222;-71
2022/06/28 11:04:26;;;;;;;0.00;0.00;;;27.20;99.90;;;;;;5092071;28;20226;-71
2022/06/28 11:06:56;;;;;;;0.00;0.00;;;27.20;99.90;;;;;;5086627;28;20202;-70
2022/06/28 11:09:34;;;;;;;0.00;0.00;;;27.30;99.90;;;;;;5094188;28;20225;-71
2022/06/28 11:12:08;;;;;;;0.00;0.00;;;27.30;99.90;;;;;;5084925;28;20212;-71
2022/06/28 11:14:44;;;;;;;0.00;0.00;;;27.20;99.90;;;;;;5086362;28;20193;-71
2022/06/28 11:17:16;;;;;;;0.00;0.00;;;27.30;99.90;;;;;;5086605;28;20236;-70
2022/06/28 11:19:51;;;;;;;0.00;0.00;;;27.20;99.90;;;;;;5085141;28;20213;-70
2022/06/28 11:22:23;;;;;;;0.00;0.00;;;27.20;99.90;;;;;;5088949;28;20211;-71
2022/06/28 11:24:51;;;;;;;0.00;0.00;;;27.10;99.90;;;;;;5095395;28;20298;-72
2022/06/28 11:27:22;;;;;;;0.00;0.00;;;27.00;99.90;;;;;;5085819;28;20200;-71
2022/06/28 11:29:51;;;;;;;0.00;0.00;;;27.20;99.90;;;;;;5088285;28;20234;-71
2022/06/28 11:32:20;;;;;;;0.00;0.00;;;27.30;99.90;;;;;;5086452;28;20272;-71
2022/06/28 11:34:55;;;;;;;0.00;0.00;;;27.30;99.90;;;;;;5088494;28;20274;-71
2022/06/28 11:37:23;;;;;;;0.00;0.00;;;27.40;99.90;;;;;;5090414;28;20206;-71
2022/06/28 11:39:55;;;;;;;0.00;0.00;;;27.50;99.90;;;;;;5121979;27;20194;-71
2022/06/28 11:42:23;;;;;;;0.00;0.00;;;27.50;99.90;;;;;;5086122;28;20292;-70
2022/06/28 11:44:51;;;;;;;0.00;0.00;;;27.60;99.90;;;;;;5094049;28;20267;-71
2022/06/28 11:47:20;;;;;;;0.00;0.00;;;27.70;99.90;;;;;;5093776;28;20194;-71
2022/06/28 11:50:10;;;;;;;0.00;0.00;;;27.80;99.90;;;;;;5086152;28;20217;-72
2022/06/28 11:52:49;;;;;;;0.00;0.00;;;27.70;99.90;;;;;;5094570;28;20284;-71
2022/06/28 11:55:17;;;;;;;0.00;0.00;;;27.80;99.90;;;;;;5088583;28;20254;-71
2022/06/28 11:57:46;;;;;;;0.00;0.00;;;;;;;;;;5085854;28;20210;-69
2022/06/28 12:00:15;;;;;;;0.00;0.00;;;;;;;;;;5084900;28;20203;-70
2022/06/28 12:02:47;;;;;;;0.00;0.00;;;;;;;;;;5092629;28;20224;-71
2022/06/28 12:05:15;;;;;;;0.00;0.00;;;;;;;;;;5089893;28;20219;-71
2022/06/28 12:07:43;;;;;;;0.00;0.00;;;;;;;;;;5087037;28;20304;-71
2022/06/28 12:10:20;;;;;;;0.00;0.00;;;;;;;;;;5085346;28;20224;-70
2022/06/28 12:12:49;;;;;;;0.00;0.00;;;;;;;;;;5085447;28;20595;-70
2022/06/28 12:15:16;;;;;;;0.00;0.00;;;;;;;;;;5086866;28;20734;-69
2022/06/28 12:17:48;;;;;;;0.00;0.00;;;;;;;;;;5088499;28;20210;-70
2022/06/28 12:20:17;;;;;;;0.00;0.00;;;;;;;;;;5090361;28;20198;-70
2022/06/28 12:22:55;;;;;;;0.00;0.00;;;27.80;99.90;;;;;;5087360;28;20230;-71
2022/06/28 12:25:22;;;;;;;0.00;0.00;;;27.80;99.90;;;;;;5087290;28;20216;-70
2022/06/28 12:27:50;;;;;;;0.00;0.00;;;27.80;99.90;;;;;;5081598;28;20202;-70
2022/06/28 12:30:17;;;;;;;0.00;0.00;;;27.80;99.90;;;;;;5085599;28;20217;-71
2022/06/28 12:32:45;;;;;;;0.00;0.00;;;27.70;99.90;;;;;;5084872;28;20230;-71
2022/06/28 12:35:13;;;;;;;0.00;0.00;;;27.70;99.90;;;;;;5086758;28;20201;-72
2022/06/28 12:37:40;;;;;;;0.00;0.00;;;27.70;99.90;;;;;;5086563;28;20205;-71
2022/06/28 12:40:08;;;;;;;0.00;0.00;;;27.60;99.90;;;;;;5078005;28;20240;-71
2022/06/28 12:42:36;;;;;;;0.00;0.00;;;27.40;99.90;;;;;;5087430;28;20372;-72
2022/06/28 12:45:06;;;;;;;0.00;0.00;;;27.20;99.90;;;;;;5124211;27;20224;-72
2022/06/28 12:47:36;;;;;;;0.00;0.00;;;27.10;99.90;;;;;;5086009;28;20201;-70
2022/06/28 12:50:05;;;;;;;0.00;0.00;;;26.90;99.90;;;;;;5084215;28;20249;-70
2022/06/28 12:52:34;;;;;;;0.00;0.00;;;26.90;99.90;;;;;;5086214;28;20285;-71
2022/06/28 12:55:01;;;;;;;0.00;0.00;;;26.90;99.90;;;;;;5121726;27;20599;-70
2022/06/28 12:57:28;;;;;;;0.00;0.00;;;26.90;99.90;;;;;;5084411;28;20198;-70
2022/06/28 12:59:56;;;;;;;0.00;0.00;;;26.90;99.90;;;;;;5084006;28;20206;-71
2022/06/28 13:02:25;;;;;;;0.00;0.00;;;26.90;99.90;;;;;;5086463;28;20725;-70
2022/06/28 13:04:52;;;;;;;0.00;0.00;;;26.90;99.90;;;;;;5094196;28;20233;-71
2022/06/28 13:07:21;;;;;;;0.00;0.00;;;26.80;99.90;;;;;;5085232;28;20214;-71
2022/06/28 13:09:48;;;;;;;0.00;0.00;;;26.80;99.90;;;;;;5083966;28;20228;-71
2022/06/28 13:12:16;;;;;;;0.00;0.00;;;26.70;99.90;;;;;;5085312;28;20671;-71
2022/06/28 13:14:43;;;;;;;0.00;0.00;;;26.60;99.90;;;;;;5084120;28;20213;-71
2022/06/28 13:17:10;;;;;;;0.00;0.00;;;26.50;99.90;;;;;;5080889;28;20302;-71
2022/06/28 13:19:38;;;;;;;0.00;0.00;;;26.50;99.90;;;;;;5084553;28;20247;-71
2022/06/28 13:22:05;;;;;;;0.00;0.00;;;26.40;99.90;;;;;;5099195;27;20206;-71